Weather at Skydive Strathallan

Public forecast

Using degrees Celsius for public forecast. Weather courtesy of forecast.io.

Closest aviation weather report (METAR) to Skydive Strathallan

Report is more than 2 hours old.

Closest report is Dundee Airport, 25.2 nm (46.7 km) ENE.

2024/05/27 19:50 (retrieved 6 hours ago)

EGPN 271950Z 26007KT 9999 FEW015 14/11 Q1009

Closest aviation forecast (TAF) to Skydive Strathallan

Forecast is more than 6 hours old.

Closest forecast is RAF Lakenheath, 279.2 nm (517.0 km) SE.

2024/05/27 18:37 Ammendment (retrieved 7 hours ago)

TAF AMD EGUL 271815Z 2718/2822 23010KT 9999 FEW035 BKN060 QNH2991INS TEMPO 2718/2721 9000 -SHRA BECMG 2722/2723 VRB06KT 9999 FEW030 QNH2990INS BECMG 2804/2806 20010KT 9999 FEW007 BKN015 QNH2986INS TEMPO 2806/2809 6000 -SHRA BR BKN007 BECMG 2808/2809 20010G20KT 8000 -SHRA FEW008 BKN018 QNH2972INS TEMPO 2812/2815 6000 -SHRA BKN008 BECMG 2818/2819 24010G18KT 9999 NSW FEW015 BKN020 QNH2973INS TX16/2718Z TN09/2804Z LAST NO AMDS AFT 2718 NEXT 2805